sensor_id;sensor_type;location;lat;lon;timestamp;pressure;altitude;pressure_sealevel;temperature;humidity
77192;BME280;66172;48.526;8.078;2023-04-29T00:02:12;99295.50;;;13.25;99.67
77192;BME280;66172;48.526;8.078;2023-04-29T00:04:38;99300.09;;;13.21;99.38
77192;BME280;66172;48.526;8.078;2023-04-29T00:07:04;99299.59;;;13.15;98.80
77192;BME280;66172;48.526;8.078;2023-04-29T00:09:30;99303.88;;;13.16;99.26
77192;BME280;66172;48.526;8.078;2023-04-29T00:11:56;99294.19;;;13.19;99.18
77192;BME280;66172;48.526;8.078;2023-04-29T00:14:22;99313.97;;;13.12;99.29
77192;BME280;66172;48.526;8.078;2023-04-29T00:16:49;99298.78;;;13.15;99.42
77192;BME280;66172;48.526;8.078;2023-04-29T00:19:15;99298.00;;;13.14;99.39
77192;BME280;66172;48.526;8.078;2023-04-29T00:21:42;99305.47;;;13.17;99.19
77192;BME280;66172;48.526;8.078;2023-04-29T00:24:08;99303.47;;;13.14;99.11
77192;BME280;66172;48.526;8.078;2023-04-29T00:26:34;99314.03;;;13.16;98.51
77192;BME280;66172;48.526;8.078;2023-04-29T00:29:00;99315.59;;;13.17;98.43
77192;BME280;66172;48.526;8.078;2023-04-29T00:31:26;99312.16;;;13.20;99.03
77192;BME280;66172;48.526;8.078;2023-04-29T00:33:52;99310.28;;;13.24;98.65
77192;BME280;66172;48.526;8.078;2023-04-29T00:36:18;99313.69;;;13.36;97.79
77192;BME280;66172;48.526;8.078;2023-04-29T00:38:44;99314.25;;;13.45;97.43
77192;BME280;66172;48.526;8.078;2023-04-29T00:41:09;99314.31;;;13.49;97.35
77192;BME280;66172;48.526;8.078;2023-04-29T00:43:35;99315.59;;;13.55;96.69
77192;BME280;66172;48.526;8.078;2023-04-29T00:46:01;99309.13;;;13.63;96.39
77192;BME280;66172;48.526;8.078;2023-04-29T00:48:28;99316.53;;;13.63;96.09
77192;BME280;66172;48.526;8.078;2023-04-29T00:50:54;99307.47;;;13.59;96.55
77192;BME280;66172;48.526;8.078;2023-04-29T00:53:20;99310.25;;;13.62;96.27
77192;BME280;66172;48.526;8.078;2023-04-29T00:55:49;99309.19;;;13.67;96.14
77192;BME280;66172;48.526;8.078;2023-04-29T00:58:17;99310.84;;;13.71;95.94
77192;BME280;66172;48.526;8.078;2023-04-29T01:00:43;99315.06;;;13.69;96.21
77192;BME280;66172;48.526;8.078;2023-04-29T01:03:10;99316.97;;;13.65;96.14
77192;BME280;66172;48.526;8.078;2023-04-29T01:05:37;99314.50;;;13.60;96.60
77192;BME280;66172;48.526;8.078;2023-04-29T01:08:31;99317.44;;;13.70;96.01
77192;BME280;66172;48.526;8.078;2023-04-29T01:11:07;99313.44;;;13.64;96.15
77192;BME280;66172;48.526;8.078;2023-04-29T01:13:45;99310.91;;;13.56;96.68
77192;BME280;66172;48.526;8.078;2023-04-29T01:16:24;99312.38;;;13.49;97.13
77192;BME280;66172;48.526;8.078;2023-04-29T01:18:58;99312.00;;;13.51;97.21
77192;BME280;66172;48.526;8.078;2023-04-29T01:21:27;99318.25;;;13.51;97.08
77192;BME280;66172;48.526;8.078;2023-04-29T01:23:53;99321.78;;;13.52;97.04
77192;BME280;66172;48.526;8.078;2023-04-29T01:26:21;99319.41;;;13.50;97.21
77192;BME280;66172;48.526;8.078;2023-04-29T01:29:15;99320.19;;;13.51;97.09
77192;BME280;66172;48.526;8.078;2023-04-29T01:32:03;99322.09;;;13.47;97.49
77192;BME280;66172;48.526;8.078;2023-04-29T01:34:40;99319.34;;;13.47;97.43
77192;BME280;66172;48.526;8.078;2023-04-29T01:37:19;99321.28;;;13.46;97.46
77192;BME280;66172;48.526;8.078;2023-04-29T01:40:11;99322.00;;;13.43;97.39
77192;BME280;66172;48.526;8.078;2023-04-29T01:42:45;99313.88;;;13.47;97.27
77192;BME280;66172;48.526;8.078;2023-04-29T01:45:14;99322.50;;;13.49;97.23
77192;BME280;66172;48.526;8.078;2023-04-29T01:47:42;99318.19;;;13.48;97.03
77192;BME280;66172;48.526;8.078;2023-04-29T01:50:08;99328.38;;;13.51;97.19
77192;BME280;66172;48.526;8.078;2023-04-29T01:52:34;99328.03;;;13.52;96.73
77192;BME280;66172;48.526;8.078;2023-04-29T01:55:01;99320.72;;;13.57;96.75
77192;BME280;66172;48.526;8.078;2023-04-29T01:57:28;99329.31;;;13.59;96.62
77192;BME280;66172;48.526;8.078;2023-04-29T01:59:54;99321.19;;;13.62;96.38
77192;BME280;66172;48.526;8.078;2023-04-29T02:02:20;99322.28;;;13.58;96.21
77192;BME280;66172;48.526;8.078;2023-04-29T02:04:48;99322.72;;;13.60;96.27
77192;BME280;66172;48.526;8.078;2023-04-29T02:07:15;99325.50;;;13.63;95.92
77192;BME280;66172;48.526;8.078;2023-04-29T02:09:41;99321.19;;;13.62;95.77
77192;BME280;66172;48.526;8.078;2023-04-29T02:12:07;99322.38;;;13.61;95.76
77192;BME280;66172;48.526;8.078;2023-04-29T02:14:33;99326.66;;;13.62;95.72
77192;BME280;66172;48.526;8.078;2023-04-29T02:16:59;99332.13;;;13.62;95.64
77192;BME280;66172;48.526;8.078;2023-04-29T02:19:25;99328.97;;;13.60;95.89
77192;BME280;66172;48.526;8.078;2023-04-29T02:21:51;99325.84;;;13.62;95.62
77192;BME280;66172;48.526;8.078;2023-04-29T02:24:17;99325.50;;;13.63;95.54
77192;BME280;66172;48.526;8.078;2023-04-29T02:26:43;99330.19;;;13.63;95.68
77192;BME280;66172;48.526;8.078;2023-04-29T02:29:09;99335.28;;;13.64;95.33
77192;BME280;66172;48.526;8.078;2023-04-29T02:31:35;99338.81;;;13.65;95.42
77192;BME280;66172;48.526;8.078;2023-04-29T02:34:00;99343.50;;;13.64;95.37
77192;BME280;66172;48.526;8.078;2023-04-29T02:36:26;99340.75;;;13.64;95.49
77192;BME280;66172;48.526;8.078;2023-04-29T02:38:53;99352.09;;;13.66;95.57
77192;BME280;66172;48.526;8.078;2023-04-29T02:41:21;99353.69;;;13.67;95.34
77192;BME280;66172;48.526;8.078;2023-04-29T02:43:47;99360.75;;;13.68;95.41
77192;BME280;66172;48.526;8.078;2023-04-29T02:46:15;99358.38;;;13.67;95.34
77192;BME280;66172;48.526;8.078;2023-04-29T02:48:41;99357.22;;;13.68;94.83
77192;BME280;66172;48.526;8.078;2023-04-29T02:51:07;99364.25;;;13.69;94.58
77192;BME280;66172;48.526;8.078;2023-04-29T02:53:33;99360.38;;;13.70;94.11
77192;BME280;66172;48.526;8.078;2023-04-29T02:55:59;99365.13;;;13.73;93.51
77192;BME280;66172;48.526;8.078;2023-04-29T02:58:25;99360.09;;;13.75;93.30
77192;BME280;66172;48.526;8.078;2023-04-29T03:00:50;99364.75;;;13.74;92.97
77192;BME280;66172;48.526;8.078;2023-04-29T03:03:16;99373.75;;;13.75;92.93
77192;BME280;66172;48.526;8.078;2023-04-29T03:05:42;99369.44;;;13.74;92.51
77192;BME280;66172;48.526;8.078;2023-04-29T03:08:09;99377.97;;;13.72;92.62
77192;BME280;66172;48.526;8.078;2023-04-29T03:10:35;99383.75;;;13.67;91.93
77192;BME280;66172;48.526;8.078;2023-04-29T03:13:01;99371.69;;;13.68;92.21
77192;BME280;66172;48.526;8.078;2023-04-29T03:15:27;99377.91;;;13.69;91.90
77192;BME280;66172;48.526;8.078;2023-04-29T03:17:53;99370.88;;;13.68;91.77
77192;BME280;66172;48.526;8.078;2023-04-29T03:20:19;99379.88;;;13.68;91.69
77192;BME280;66172;48.526;8.078;2023-04-29T03:22:45;99374.75;;;13.67;91.05
77192;BME280;66172;48.526;8.078;2023-04-29T03:25:11;99372.75;;;13.64;90.17
77192;BME280;66172;48.526;8.078;2023-04-29T03:27:38;99380.88;;;13.60;89.64
77192;BME280;66172;48.526;8.078;2023-04-29T03:30:05;99369.88;;;13.57;89.14
77192;BME280;66172;48.526;8.078;2023-04-29T03:32:31;99368.28;;;13.56;89.25
77192;BME280;66172;48.526;8.078;2023-04-29T03:34:57;99376.41;;;13.52;88.47
77192;BME280;66172;48.526;8.078;2023-04-29T03:37:23;99376.41;;;13.52;88.25
77192;BME280;66172;48.526;8.078;2023-04-29T03:39:49;99379.88;;;13.49;88.30
77192;BME280;66172;48.526;8.078;2023-04-29T03:42:15;99370.53;;;13.50;88.75
77192;BME280;66172;48.526;8.078;2023-04-29T03:44:41;99377.94;;;13.49;89.22
77192;BME280;66172;48.526;8.078;2023-04-29T03:47:06;99382.59;;;13.49;89.23
77192;BME280;66172;48.526;8.078;2023-04-29T03:49:33;99384.91;;;13.47;89.29
77192;BME280;66172;48.526;8.078;2023-04-29T03:51:59;99383.31;;;13.46;89.34
77192;BME280;66172;48.526;8.078;2023-04-29T03:54:25;99385.19;;;13.42;89.58
77192;BME280;66172;48.526;8.078;2023-04-29T03:56:51;99395.69;;;13.40;89.05
77192;BME280;66172;48.526;8.078;2023-04-29T03:59:16;99396.84;;;13.39;89.15
77192;BME280;66172;48.526;8.078;2023-04-29T04:01:42;99403.34;;;13.34;88.84
77192;BME280;66172;48.526;8.078;2023-04-29T04:04:08;99405.06;;;13.23;87.84
77192;BME280;66172;48.526;8.078;2023-04-29T04:06:34;99398.38;;;13.21;87.50
77192;BME280;66172;48.526;8.078;2023-04-29T04:09:00;99403.56;;;13.26;87.69
77192;BME280;66172;48.526;8.078;2023-04-29T04:11:26;99404.72;;;13.25;87.70
77192;BME280;66172;48.526;8.078;2023-04-29T04:13:52;99394.84;;;13.20;88.00
77192;BME280;66172;48.526;8.078;2023-04-29T04:16:18;99417.78;;;13.16;87.80
77192;BME280;66172;48.526;8.078;2023-04-29T04:18:44;99412.59;;;13.11;87.97
77192;BME280;66172;48.526;8.078;2023-04-29T04:21:11;99419.06;;;13.06;87.79
77192;BME280;66172;48.526;8.078;2023-04-29T04:23:37;99420.16;;;13.01;87.92
77192;BME280;66172;48.526;8.078;2023-04-29T04:26:06;99419.63;;;12.96;87.45
77192;BME280;66172;48.526;8.078;2023-04-29T04:28:32;99424.13;;;12.88;87.56
77192;BME280;66172;48.526;8.078;2023-04-29T04:30:58;99425.22;;;12.84;87.66
77192;BME280;66172;48.526;8.078;2023-04-29T04:33:24;99434.53;;;12.83;87.82
77192;BME280;66172;48.526;8.078;2023-04-29T04:35:50;99431.72;;;12.79;88.34
77192;BME280;66172;48.526;8.078;2023-04-29T04:38:16;99434.78;;;12.78;88.20
77192;BME280;66172;48.526;8.078;2023-04-29T04:40:43;99441.91;;;12.82;86.80
77192;BME280;66172;48.526;8.078;2023-04-29T04:43:09;99450.34;;;12.77;87.06
77192;BME280;66172;48.526;8.078;2023-04-29T04:45:34;99461.19;;;12.74;87.42
77192;BME280;66172;48.526;8.078;2023-04-29T04:48:01;99456.09;;;12.72;87.55
77192;BME280;66172;48.526;8.078;2023-04-29T04:50:28;99457.22;;;12.71;87.14
77192;BME280;66172;48.526;8.078;2023-04-29T04:52:54;99463.72;;;12.67;87.22
77192;BME280;66172;48.526;8.078;2023-04-29T04:55:21;99466.75;;;12.62;86.75
77192;BME280;66172;48.526;8.078;2023-04-29T04:57:47;99471.41;;;12.61;86.63
77192;BME280;66172;48.526;8.078;2023-04-29T05:00:13;99472.72;;;12.67;86.35
77192;BME280;66172;48.526;8.078;2023-04-29T05:02:39;99476.69;;;12.70;86.40
77192;BME280;66172;48.526;8.078;2023-04-29T05:05:05;99475.72;;;12.78;86.37
77192;BME280;66172;48.526;8.078;2023-04-29T05:07:31;99471.69;;;12.87;85.87
77192;BME280;66172;48.526;8.078;2023-04-29T05:09:57;99475.91;;;13.00;85.63
77192;BME280;66172;48.526;8.078;2023-04-29T05:12:23;99476.25;;;13.15;84.68
77192;BME280;66172;48.526;8.078;2023-04-29T05:14:55;99479.59;;;13.24;84.19
77192;BME280;66172;48.526;8.078;2023-04-29T05:17:22;99475.16;;;13.35;83.78
77192;BME280;66172;48.526;8.078;2023-04-29T05:19:48;99476.69;;;13.51;82.83
77192;BME280;66172;48.526;8.078;2023-04-29T05:22:13;99481.22;;;13.79;81.62
77192;BME280;66172;48.526;8.078;2023-04-29T05:24:39;99486.25;;;13.96;80.56
77192;BME280;66172;48.526;8.078;2023-04-29T05:27:05;99487.41;;;14.14;79.95
77192;BME280;66172;48.526;8.078;2023-04-29T05:29:31;99486.97;;;14.31;78.89
77192;BME280;66172;48.526;8.078;2023-04-29T05:31:57;99487.84;;;14.35;78.89
77192;BME280;66172;48.526;8.078;2023-04-29T05:34:24;99504.25;;;14.35;79.35
77192;BME280;66172;48.526;8.078;2023-04-29T05:36:50;99504.34;;;14.39;78.00
77192;BME280;66172;48.526;8.078;2023-04-29T05:39:15;99506.41;;;14.45;77.91
77192;BME280;66172;48.526;8.078;2023-04-29T05:41:42;99516.88;;;14.63;76.87
77192;BME280;66172;48.526;8.078;2023-04-29T05:44:08;99513.38;;;15.57;73.28
77192;BME280;66172;48.526;8.078;2023-04-29T05:46:34;99520.53;;;15.94;70.52
77192;BME280;66172;48.526;8.078;2023-04-29T05:49:00;99524.91;;;16.29;70.17
77192;BME280;66172;48.526;8.078;2023-04-29T05:51:26;99526.88;;;17.02;67.36
77192;BME280;66172;48.526;8.078;2023-04-29T05:53:53;99526.72;;;17.90;64.32
77192;BME280;66172;48.526;8.078;2023-04-29T05:56:19;99531.00;;;18.84;60.28
77192;BME280;66172;48.526;8.078;2023-04-29T05:58:46;99539.66;;;18.90;60.60
77192;BME280;66172;48.526;8.078;2023-04-29T06:01:12;99531.38;;;18.69;59.28
77192;BME280;66172;48.526;8.078;2023-04-29T06:03:38;99540.88;;;18.85;58.93
77192;BME280;66172;48.526;8.078;2023-04-29T06:06:04;99551.50;;;19.05;59.16
77192;BME280;66172;48.526;8.078;2023-04-29T06:08:30;99547.94;;;18.90;59.46
77192;BME280;66172;48.526;8.078;2023-04-29T06:10:56;99549.94;;;19.18;59.46
77192;BME280;66172;48.526;8.078;2023-04-29T06:13:22;99550.34;;;19.76;57.76
77192;BME280;66172;48.526;8.078;2023-04-29T06:15:48;99550.59;;;20.17;55.62
77192;BME280;66172;48.526;8.078;2023-04-29T06:18:14;99551.81;;;20.06;55.02
77192;BME280;66172;48.526;8.078;2023-04-29T06:20:39;99557.41;;;19.77;56.45
77192;BME280;66172;48.526;8.078;2023-04-29T06:23:05;99557.38;;;18.78;58.42
77192;BME280;66172;48.526;8.078;2023-04-29T06:25:31;99551.50;;;18.94;57.38
77192;BME280;66172;48.526;8.078;2023-04-29T06:27:57;99551.81;;;20.96;52.95
77192;BME280;66172;48.526;8.078;2023-04-29T06:30:23;99559.44;;;22.49;49.01
77192;BME280;66172;48.526;8.078;2023-04-29T06:32:49;99558.91;;;22.91;46.94
77192;BME280;66172;48.526;8.078;2023-04-29T06:35:15;99566.34;;;22.37;47.83
77192;BME280;66172;48.526;8.078;2023-04-29T06:37:41;99562.38;;;20.42;50.52
77192;BME280;66172;48.526;8.078;2023-04-29T06:40:07;99565.34;;;19.51;54.56
77192;BME280;66172;48.526;8.078;2023-04-29T06:42:33;99555.44;;;19.32;55.23
77192;BME280;66172;48.526;8.078;2023-04-29T06:44:59;99568.97;;;18.26;58.03
77192;BME280;66172;48.526;8.078;2023-04-29T06:47:25;99575.41;;;17.79;60.18
77192;BME280;66172;48.526;8.078;2023-04-29T06:49:51;99570.47;;;17.51;61.94
77192;BME280;66172;48.526;8.078;2023-04-29T06:52:17;99574.38;;;16.66;63.80
77192;BME280;66172;48.526;8.078;2023-04-29T06:54:43;99576.44;;;16.13;64.82
77192;BME280;66172;48.526;8.078;2023-04-29T06:57:09;99577.84;;;15.99;65.47
77192;BME280;66172;48.526;8.078;2023-04-29T06:59:35;99578.66;;;16.04;65.34
77192;BME280;66172;48.526;8.078;2023-04-29T07:02:01;99567.41;;;16.12;65.57
77192;BME280;66172;48.526;8.078;2023-04-29T07:04:27;99582.59;;;16.32;66.11
77192;BME280;66172;48.526;8.078;2023-04-29T07:06:53;99574.44;;;16.39;65.63
77192;BME280;66172;48.526;8.078;2023-04-29T07:09:20;99580.75;;;16.14;65.91
77192;BME280;66172;48.526;8.078;2023-04-29T07:11:46;99588.06;;;16.03;65.55
77192;BME280;66172;48.526;8.078;2023-04-29T07:14:11;99585.81;;;16.12;65.63
77192;BME280;66172;48.526;8.078;2023-04-29T07:16:37;99583.47;;;16.10;66.02
77192;BME280;66172;48.526;8.078;2023-04-29T07:19:03;99578.53;;;15.93;66.48
77192;BME280;66172;48.526;8.078;2023-04-29T07:21:29;99589.00;;;15.87;67.12
77192;BME280;66172;48.526;8.078;2023-04-29T07:23:55;99584.97;;;15.78;66.90
77192;BME280;66172;48.526;8.078;2023-04-29T07:26:23;99595.34;;;15.65;67.06
77192;BME280;66172;48.526;8.078;2023-04-29T07:28:49;99591.13;;;15.71;66.82
77192;BME280;66172;48.526;8.078;2023-04-29T07:31:15;99594.59;;;15.94;65.69
77192;BME280;66172;48.526;8.078;2023-04-29T07:33:41;99585.38;;;16.06;66.15
77192;BME280;66172;48.526;8.078;2023-04-29T07:36:07;99596.13;;;16.18;64.72
77192;BME280;66172;48.526;8.078;2023-04-29T07:38:33;99603.59;;;16.21;64.95
77192;BME280;66172;48.526;8.078;2023-04-29T07:40:59;99600.56;;;16.30;65.05
77192;BME280;66172;48.526;8.078;2023-04-29T07:43:25;99602.75;;;16.47;64.60
77192;BME280;66172;48.526;8.078;2023-04-29T07:45:51;99603.94;;;16.46;62.86
77192;BME280;66172;48.526;8.078;2023-04-29T07:48:17;99603.41;;;17.04;61.26
77192;BME280;66172;48.526;8.078;2023-04-29T07:50:43;99615.78;;;18.22;58.10
77192;BME280;66172;48.526;8.078;2023-04-29T07:53:09;99611.31;;;18.86;56.25
77192;BME280;66172;48.526;8.078;2023-04-29T07:55:36;99607.84;;;19.35;53.89
77192;BME280;66172;48.526;8.078;2023-04-29T07:58:02;99612.19;;;19.33;53.89
77192;BME280;66172;48.526;8.078;2023-04-29T08:00:28;99610.97;;;19.09;54.40
77192;BME280;66172;48.526;8.078;2023-04-29T08:02:55;99618.03;;;18.89;53.82
77192;BME280;66172;48.526;8.078;2023-04-29T08:05:21;99617.94;;;18.64;56.04
77192;BME280;66172;48.526;8.078;2023-04-29T08:07:48;99622.50;;;18.35;55.83
77192;BME280;66172;48.526;8.078;2023-04-29T08:10:14;99625.97;;;18.18;57.29
77192;BME280;66172;48.526;8.078;2023-04-29T08:12:41;99628.25;;;18.09;57.09
77192;BME280;66172;48.526;8.078;2023-04-29T08:15:10;99632.78;;;17.84;56.92
77192;BME280;66172;48.526;8.078;2023-04-29T08:17:36;99629.44;;;17.57;58.57
77192;BME280;66172;48.526;8.078;2023-04-29T08:20:02;99632.44;;;17.41;58.69
77192;BME280;66172;48.526;8.078;2023-04-29T08:22:28;99636.22;;;17.26;58.51
77192;BME280;66172;48.526;8.078;2023-04-29T08:24:53;99627.13;;;17.19;59.40
77192;BME280;66172;48.526;8.078;2023-04-29T08:27:20;99632.78;;;16.99;60.18
77192;BME280;66172;48.526;8.078;2023-04-29T08:29:46;99638.00;;;16.75;59.42
77192;BME280;66172;48.526;8.078;2023-04-29T08:32:12;99638.78;;;16.42;61.08
77192;BME280;66172;48.526;8.078;2023-04-29T08:34:38;99637.28;;;16.48;61.20
77192;BME280;66172;48.526;8.078;2023-04-29T08:37:06;99637.69;;;16.80;60.38
77192;BME280;66172;48.526;8.078;2023-04-29T08:39:32;99641.84;;;17.40;58.36
77192;BME280;66172;48.526;8.078;2023-04-29T08:41:57;99646.50;;;18.35;55.50
77192;BME280;66172;48.526;8.078;2023-04-29T08:44:27;99626.75;;;19.12;52.93
77192;BME280;66172;48.526;8.078;2023-04-29T08:46:55;99635.03;;;19.19;51.03
77192;BME280;66172;48.526;8.078;2023-04-29T08:49:22;99632.19;;;18.91;53.05
77192;BME280;66172;48.526;8.078;2023-04-29T08:51:48;99629.13;;;19.28;52.27
77192;BME280;66172;48.526;8.078;2023-04-29T08:54:16;99627.56;;;19.37;51.48
77192;BME280;66172;48.526;8.078;2023-04-29T08:56:45;99631.13;;;19.31;50.81
77192;BME280;66172;48.526;8.078;2023-04-29T08:59:16;99631.72;;;18.61;52.27
77192;BME280;66172;48.526;8.078;2023-04-29T09:01:43;99632.66;;;18.21;53.27
77192;BME280;66172;48.526;8.078;2023-04-29T09:06:57;99638.63;;;17.72;54.52
77192;BME280;66172;48.526;8.078;2023-04-29T09:09:24;99633.00;;;18.16;54.25
77192;BME280;66172;48.526;8.078;2023-04-29T09:11:50;99642.13;;;18.30;54.61
77192;BME280;66172;48.526;8.078;2023-04-29T09:14:17;99637.38;;;18.20;53.18
77192;BME280;66172;48.526;8.078;2023-04-29T09:16:46;99645.47;;;18.61;53.09
77192;BME280;66172;48.526;8.078;2023-04-29T09:19:28;99645.13;;;18.04;53.42
77192;BME280;66172;48.526;8.078;2023-04-29T09:21:54;99642.13;;;17.69;53.72
77192;BME280;66172;48.526;8.078;2023-04-29T09:24:27;99636.47;;;17.55;54.11
77192;BME280;66172;48.526;8.078;2023-04-29T09:26:55;99635.75;;;17.58;55.74
77192;BME280;66172;48.526;8.078;2023-04-29T09:29:21;99641.56;;;17.53;55.57
77192;BME280;66172;48.526;8.078;2023-04-29T09:31:47;99640.28;;;17.83;54.12
77192;BME280;66172;48.526;8.078;2023-04-29T09:34:14;99644.25;;;17.89;53.93
77192;BME280;66172;48.526;8.078;2023-04-29T09:36:45;99643.69;;;18.24;54.13
77192;BME280;66172;48.526;8.078;2023-04-29T09:39:14;99648.63;;;18.59;52.84
77192;BME280;66172;48.526;8.078;2023-04-29T09:44:27;99639.09;;;18.46;51.25
77192;BME280;66172;48.526;8.078;2023-04-29T09:49:30;99654.91;;;17.51;53.19
77192;BME280;66172;48.526;8.078;2023-04-29T09:51:58;99645.00;;;17.42;53.97
77192;BME280;66172;48.526;8.078;2023-04-29T09:54:30;99641.97;;;17.14;54.90
77192;BME280;66172;48.526;8.078;2023-04-29T09:56:58;99641.44;;;17.38;54.58
77192;BME280;66172;48.526;8.078;2023-04-29T09:59:24;99650.50;;;16.69;55.10
77192;BME280;66172;48.526;8.078;2023-04-29T10:01:55;99640.50;;;17.20;54.87
77192;BME280;66172;48.526;8.078;2023-04-29T10:04:23;99643.63;;;17.63;54.43
77192;BME280;66172;48.526;8.078;2023-04-29T10:06:52;99648.91;;;17.82;53.83
77192;BME280;66172;48.526;8.078;2023-04-29T10:09:18;99642.59;;;17.81;53.77
77192;BME280;66172;48.526;8.078;2023-04-29T10:11:47;99641.81;;;17.81;54.06
77192;BME280;66172;48.526;8.078;2023-04-29T10:14:15;99644.31;;;18.00;53.58
77192;BME280;66172;48.526;8.078;2023-04-29T10:19:24;99642.81;;;18.13;52.89
77192;BME280;66172;48.526;8.078;2023-04-29T10:21:52;99630.22;;;18.09;51.83
77192;BME280;66172;48.526;8.078;2023-04-29T10:24:20;99640.31;;;17.87;51.62
77192;BME280;66172;48.526;8.078;2023-04-29T10:26:49;99639.03;;;17.77;52.83
77192;BME280;66172;48.526;8.078;2023-04-29T10:29:16;99633.72;;;18.02;51.84
77192;BME280;66172;48.526;8.078;2023-04-29T10:31:42;99639.28;;;18.13;52.30
77192;BME280;66172;48.526;8.078;2023-04-29T10:34:10;99645.03;;;17.86;52.89
77192;BME280;66172;48.526;8.078;2023-04-29T10:36:37;99645.28;;;17.71;53.78
77192;BME280;66172;48.526;8.078;2023-04-29T10:39:04;99632.69;;;17.70;52.76
77192;BME280;66172;48.526;8.078;2023-04-29T10:41:43;99639.31;;;17.62;53.20
77192;BME280;66172;48.526;8.078;2023-04-29T10:44:12;99633.81;;;17.62;53.08
77192;BME280;66172;48.526;8.078;2023-04-29T10:46:39;99633.19;;;17.82;52.43
77192;BME280;66172;48.526;8.078;2023-04-29T10:49:06;99628.88;;;17.85;52.86
77192;BME280;66172;48.526;8.078;2023-04-29T10:51:39;99638.72;;;17.86;53.64
77192;BME280;66172;48.526;8.078;2023-04-29T10:54:15;99638.00;;;17.48;53.11
77192;BME280;66172;48.526;8.078;2023-04-29T10:59:13;99635.22;;;17.92;52.69
77192;BME280;66172;48.526;8.078;2023-04-29T11:01:48;99634.53;;;18.06;51.10
77192;BME280;66172;48.526;8.078;2023-04-29T11:04:16;99622.53;;;18.42;50.89
77192;BME280;66172;48.526;8.078;2023-04-29T11:06:44;99626.13;;;18.50;50.97
77192;BME280;66172;48.526;8.078;2023-04-29T11:09:12;99627.78;;;18.65;50.32
77192;BME280;66172;48.526;8.078;2023-04-29T11:11:43;99632.56;;;18.86;49.87
77192;BME280;66172;48.526;8.078;2023-04-29T11:14:10;99627.91;;;19.15;48.75
77192;BME280;66172;48.526;8.078;2023-04-29T11:16:37;99620.13;;;19.45;47.44
77192;BME280;66172;48.526;8.078;2023-04-29T11:19:07;99623.25;;;19.65;47.73
77192;BME280;66172;48.526;8.078;2023-04-29T11:21:34;99610.63;;;19.85;47.03
77192;BME280;66172;48.526;8.078;2023-04-29T11:24:02;99618.84;;;20.13;45.81
77192;BME280;66172;48.526;8.078;2023-04-29T11:26:28;99620.47;;;19.40;47.95
77192;BME280;66172;48.526;8.078;2023-04-29T11:28:55;99618.91;;;19.64;48.07
77192;BME280;66172;48.526;8.078;2023-04-29T11:31:25;99619.72;;;19.47;48.12
77192;BME280;66172;48.526;8.078;2023-04-29T11:33:53;99627.59;;;19.62;46.65
77192;BME280;66172;48.526;8.078;2023-04-29T11:36:19;99617.72;;;19.36;47.38
77192;BME280;66172;48.526;8.078;2023-04-29T11:38:45;99634.91;;;18.80;48.66
77192;BME280;66172;48.526;8.078;2023-04-29T11:41:11;99623.47;;;18.68;49.63
77192;BME280;66172;48.526;8.078;2023-04-29T11:43:37;99636.06;;;18.69;48.98
77192;BME280;66172;48.526;8.078;2023-04-29T11:46:13;99630.53;;;18.69;47.50
77192;BME280;66172;48.526;8.078;2023-04-29T11:48:46;99633.22;;;18.51;48.56
77192;BME280;66172;48.526;8.078;2023-04-29T11:51:13;99630.00;;;18.38;48.76
77192;BME280;66172;48.526;8.078;2023-04-29T11:53:39;99630.38;;;18.40;49.09
77192;BME280;66172;48.526;8.078;2023-04-29T11:56:05;99636.25;;;18.28;49.97
77192;BME280;66172;48.526;8.078;2023-04-29T11:58:31;99634.69;;;18.31;49.00
77192;BME280;66172;48.526;8.078;2023-04-29T12:00:57;99632.44;;;17.89;50.10
77192;BME280;66172;48.526;8.078;2023-04-29T12:03:23;99620.56;;;18.36;48.04
77192;BME280;66172;48.526;8.078;2023-04-29T12:05:50;99627.44;;;18.81;47.61
77192;BME280;66172;48.526;8.078;2023-04-29T12:08:23;99631.41;;;18.90;48.47
77192;BME280;66172;48.526;8.078;2023-04-29T12:10:51;99625.44;;;18.67;47.00
77192;BME280;66172;48.526;8.078;2023-04-29T12:13:18;99631.06;;;18.99;47.06
77192;BME280;66172;48.526;8.078;2023-04-29T12:15:45;99633.81;;;19.03;46.79
77192;BME280;66172;48.526;8.078;2023-04-29T12:18:12;99631.53;;;19.43;46.21
77192;BME280;66172;48.526;8.078;2023-04-29T12:20:39;99628.72;;;19.19;46.62
77192;BME280;66172;48.526;8.078;2023-04-29T12:23:16;99620.50;;;19.89;46.90
77192;BME280;66172;48.526;8.078;2023-04-29T12:25:51;99627.53;;;20.26;45.45
77192;BME280;66172;48.526;8.078;2023-04-29T12:28:18;99621.84;;;20.75;43.07
77192;BME280;66172;48.526;8.078;2023-04-29T12:30:46;99625.88;;;20.50;44.79
77192;BME280;66172;48.526;8.078;2023-04-29T12:33:52;99620.81;;;21.21;40.44
77192;BME280;66172;48.526;8.078;2023-04-29T12:36:15;99628.72;;;20.28;44.51
77192;BME280;66172;48.526;8.078;2023-04-29T12:38:43;99621.66;;;19.88;45.01
77192;BME280;66172;48.526;8.078;2023-04-29T12:41:09;99628.69;;;20.25;43.92
77192;BME280;66172;48.526;8.078;2023-04-29T12:43:36;99633.44;;;20.24;43.89
77192;BME280;66172;48.526;8.078;2023-04-29T12:46:03;99617.91;;;20.66;41.17
77192;BME280;66172;48.526;8.078;2023-04-29T12:48:29;99621.53;;;20.52;42.36
77192;BME280;66172;48.526;8.078;2023-04-29T12:50:57;99619.53;;;20.60;42.29
77192;BME280;66172;48.526;8.078;2023-04-29T12:53:25;99622.81;;;20.30;43.00
77192;BME280;66172;48.526;8.078;2023-04-29T12:55:52;99622.88;;;19.63;44.50
77192;BME280;66172;48.526;8.078;2023-04-29T12:58:18;99631.13;;;20.09;44.49
77192;BME280;66172;48.526;8.078;2023-04-29T13:00:44;99626.00;;;20.04;44.78
77192;BME280;66172;48.526;8.078;2023-04-29T13:03:10;99625.19;;;20.03;43.95
77192;BME280;66172;48.526;8.078;2023-04-29T13:05:36;99620.50;;;19.86;44.08
77192;BME280;66172;48.526;8.078;2023-04-29T13:08:02;99624.44;;;19.64;44.70
77192;BME280;66172;48.526;8.078;2023-04-29T13:10:31;99629.91;;;19.21;46.10
77192;BME280;66172;48.526;8.078;2023-04-29T13:12:58;99626.38;;;19.28;45.68
77192;BME280;66172;48.526;8.078;2023-04-29T13:15:25;99628.25;;;18.85;46.83